sensor_id;sensor_type;location;lat;lon;timestamp;P1;durP1;ratioP1;P2;durP2;ratioP2
68229;SDS011;55048;52.220;5.160;2023-06-14T00:01:16;2.80;;;1.30;;
68229;SDS011;55048;52.220;5.160;2023-06-14T00:03:42;5.53;;;1.40;;
68229;SDS011;55048;52.220;5.160;2023-06-14T00:06:07;4.75;;;1.27;;
68229;SDS011;55048;52.220;5.160;2023-06-14T00:08:32;3.83;;;1.30;;
68229;SDS011;55048;52.220;5.160;2023-06-14T00:10:58;7.75;;;1.50;;
68229;SDS011;55048;52.220;5.160;2023-06-14T00:13:24;6.55;;;1.48;;
68229;SDS011;55048;52.220;5.160;2023-06-14T00:15:49;6.88;;;1.27;;
68229;SDS011;55048;52.220;5.160;2023-06-14T00:18:15;3.42;;;1.42;;
68229;SDS011;55048;52.220;5.160;2023-06-14T00:20:41;7.65;;;1.10;;
68229;SDS011;55048;52.220;5.160;2023-06-14T00:23:07;2.67;;;1.10;;
68229;SDS011;55048;52.220;5.160;2023-06-14T00:25:33;4.07;;;1.23;;
68229;SDS011;55048;52.220;5.160;2023-06-14T00:27:58;12.00;;;1.20;;
68229;SDS011;55048;52.220;5.160;2023-06-14T00:30:24;4.95;;;1.60;;
68229;SDS011;55048;52.220;5.160;2023-06-14T00:32:50;5.15;;;1.30;;
68229;SDS011;55048;52.220;5.160;2023-06-14T00:35:16;3.65;;;1.33;;
68229;SDS011;55048;52.220;5.160;2023-06-14T00:37:42;2.05;;;1.10;;
68229;SDS011;55048;52.220;5.160;2023-06-14T00:40:07;3.95;;;1.42;;
68229;SDS011;55048;52.220;5.160;2023-06-14T00:42:33;10.18;;;1.40;;
68229;SDS011;55048;52.220;5.160;2023-06-14T00:44:59;6.88;;;1.20;;
68229;SDS011;55048;52.220;5.160;2023-06-14T00:47:25;10.73;;;1.38;;
68229;SDS011;55048;52.220;5.160;2023-06-14T00:49:51;7.03;;;1.60;;
68229;SDS011;55048;52.220;5.160;2023-06-14T00:52:18;10.00;;;1.40;;
68229;SDS011;55048;52.220;5.160;2023-06-14T00:54:44;6.85;;;1.20;;
68229;SDS011;55048;52.220;5.160;2023-06-14T00:57:10;11.63;;;1.30;;
68229;SDS011;55048;52.220;5.160;2023-06-14T00:59:38;6.45;;;1.50;;
68229;SDS011;55048;52.220;5.160;2023-06-14T01:02:07;9.43;;;1.40;;
68229;SDS011;55048;52.220;5.160;2023-06-14T01:04:35;5.32;;;1.30;;
68229;SDS011;55048;52.220;5.160;2023-06-14T01:07:07;11.07;;;1.20;;
68229;SDS011;55048;52.220;5.160;2023-06-14T01:09:45;5.70;;;1.20;;
68229;SDS011;55048;52.220;5.160;2023-06-14T01:12:24;4.25;;;1.20;;
68229;SDS011;55048;52.220;5.160;2023-06-14T01:14:54;6.85;;;1.20;;
68229;SDS011;55048;52.220;5.160;2023-06-14T01:17:22;4.93;;;1.00;;
68229;SDS011;55048;52.220;5.160;2023-06-14T01:19:48;4.18;;;1.13;;
68229;SDS011;55048;52.220;5.160;2023-06-14T01:22:14;8.93;;;1.27;;
68229;SDS011;55048;52.220;5.160;2023-06-14T01:24:39;5.90;;;1.05;;
68229;SDS011;55048;52.220;5.160;2023-06-14T01:27:10;8.05;;;1.10;;
68229;SDS011;55048;52.220;5.160;2023-06-14T01:29:38;7.13;;;1.30;;
68229;SDS011;55048;52.220;5.160;2023-06-14T01:32:04;4.63;;;1.30;;
68229;SDS011;55048;52.220;5.160;2023-06-14T01:34:31;11.52;;;1.52;;
68229;SDS011;55048;52.220;5.160;2023-06-14T01:36:56;7.00;;;1.10;;
68229;SDS011;55048;52.220;5.160;2023-06-14T01:39:24;8.02;;;1.25;;
68229;SDS011;55048;52.220;5.160;2023-06-14T01:41:50;2.17;;;1.00;;
68229;SDS011;55048;52.220;5.160;2023-06-14T01:44:17;3.28;;;1.10;;
68229;SDS011;55048;52.220;5.160;2023-06-14T01:46:45;7.90;;;1.30;;
68229;SDS011;55048;52.220;5.160;2023-06-14T01:49:10;3.80;;;1.08;;
68229;SDS011;55048;52.220;5.160;2023-06-14T01:51:38;10.80;;;1.25;;
68229;SDS011;55048;52.220;5.160;2023-06-14T01:54:03;2.75;;;1.10;;
68229;SDS011;55048;52.220;5.160;2023-06-14T01:56:30;2.42;;;1.10;;
68229;SDS011;55048;52.220;5.160;2023-06-14T01:58:56;12.10;;;1.45;;
68229;SDS011;55048;52.220;5.160;2023-06-14T02:01:21;8.40;;;1.05;;
68229;SDS011;55048;52.220;5.160;2023-06-14T02:03:47;5.55;;;1.30;;
68229;SDS011;55048;52.220;5.160;2023-06-14T02:06:15;5.38;;;1.20;;
68229;SDS011;55048;52.220;5.160;2023-06-14T02:08:41;9.05;;;1.58;;
68229;SDS011;55048;52.220;5.160;2023-06-14T02:11:07;3.72;;;1.20;;
68229;SDS011;55048;52.220;5.160;2023-06-14T02:13:34;5.85;;;1.10;;
68229;SDS011;55048;52.220;5.160;2023-06-14T02:16:00;4.47;;;1.17;;
68229;SDS011;55048;52.220;5.160;2023-06-14T02:18:27;7.25;;;1.30;;
68229;SDS011;55048;52.220;5.160;2023-06-14T02:20:52;6.47;;;1.10;;
68229;SDS011;55048;52.220;5.160;2023-06-14T02:23:18;2.65;;;1.05;;
68229;SDS011;55048;52.220;5.160;2023-06-14T02:25:43;5.93;;;1.30;;
68229;SDS011;55048;52.220;5.160;2023-06-14T02:28:11;2.67;;;0.98;;
68229;SDS011;55048;52.220;5.160;2023-06-14T02:30:38;5.65;;;1.30;;
68229;SDS011;55048;52.220;5.160;2023-06-14T02:33:04;9.90;;;1.27;;
68229;SDS011;55048;52.220;5.160;2023-06-14T02:35:31;4.63;;;0.95;;
68229;SDS011;55048;52.220;5.160;2023-06-14T02:37:56;6.78;;;1.10;;
68229;SDS011;55048;52.220;5.160;2023-06-14T02:40:22;5.40;;;1.13;;
68229;SDS011;55048;52.220;5.160;2023-06-14T02:42:48;3.55;;;1.13;;
68229;SDS011;55048;52.220;5.160;2023-06-14T02:45:14;5.20;;;1.20;;
68229;SDS011;55048;52.220;5.160;2023-06-14T02:47:40;7.93;;;1.42;;
68229;SDS011;55048;52.220;5.160;2023-06-14T02:50:05;2.92;;;0.88;;
68229;SDS011;55048;52.220;5.160;2023-06-14T02:52:31;9.57;;;1.10;;
68229;SDS011;55048;52.220;5.160;2023-06-14T02:54:58;5.97;;;1.00;;
68229;SDS011;55048;52.220;5.160;2023-06-14T02:57:24;7.93;;;1.20;;
68229;SDS011;55048;52.220;5.160;2023-06-14T02:59:50;4.63;;;1.20;;
68229;SDS011;55048;52.220;5.160;2023-06-14T03:02:15;3.38;;;0.95;;
68229;SDS011;55048;52.220;5.160;2023-06-14T03:04:42;3.83;;;1.30;;
68229;SDS011;55048;52.220;5.160;2023-06-14T03:07:13;12.32;;;1.15;;
68229;SDS011;55048;52.220;5.160;2023-06-14T03:09:41;4.97;;;1.00;;
68229;SDS011;55048;52.220;5.160;2023-06-14T03:12:10;9.95;;;1.15;;
68229;SDS011;55048;52.220;5.160;2023-06-14T03:14:36;7.60;;;1.10;;
68229;SDS011;55048;52.220;5.160;2023-06-14T03:17:02;3.35;;;1.00;;
68229;SDS011;55048;52.220;5.160;2023-06-14T03:19:30;9.20;;;1.33;;
68229;SDS011;55048;52.220;5.160;2023-06-14T03:21:56;4.28;;;1.00;;
68229;SDS011;55048;52.220;5.160;2023-06-14T03:24:26;2.70;;;0.90;;
68229;SDS011;55048;52.220;5.160;2023-06-14T03:26:57;10.00;;;1.20;;
68229;SDS011;55048;52.220;5.160;2023-06-14T03:29:25;8.40;;;1.00;;
68229;SDS011;55048;52.220;5.160;2023-06-14T03:31:58;5.53;;;1.10;;
68229;SDS011;55048;52.220;5.160;2023-06-14T03:34:27;2.75;;;1.20;;
68229;SDS011;55048;52.220;5.160;2023-06-14T03:36:52;3.78;;;1.08;;
68229;SDS011;55048;52.220;5.160;2023-06-14T03:39:18;3.47;;;1.30;;
68229;SDS011;55048;52.220;5.160;2023-06-14T03:41:44;6.95;;;1.30;;
68229;SDS011;55048;52.220;5.160;2023-06-14T03:44:13;3.90;;;1.10;;
68229;SDS011;55048;52.220;5.160;2023-06-14T03:46:40;10.50;;;0.90;;
68229;SDS011;55048;52.220;5.160;2023-06-14T03:49:06;5.57;;;1.27;;
68229;SDS011;55048;52.220;5.160;2023-06-14T03:51:32;4.97;;;1.30;;
68229;SDS011;55048;52.220;5.160;2023-06-14T03:54:00;4.60;;;1.10;;
68229;SDS011;55048;52.220;5.160;2023-06-14T03:56:27;3.13;;;1.00;;
68229;SDS011;55048;52.220;5.160;2023-06-14T03:58:53;13.20;;;1.30;;
68229;SDS011;55048;52.220;5.160;2023-06-14T04:01:22;5.78;;;1.00;;
68229;SDS011;55048;52.220;5.160;2023-06-14T04:03:57;5.45;;;0.90;;
68229;SDS011;55048;52.220;5.160;2023-06-14T04:06:24;3.70;;;1.10;;
68229;SDS011;55048;52.220;5.160;2023-06-14T04:08:50;4.13;;;1.15;;
68229;SDS011;55048;52.220;5.160;2023-06-14T04:11:17;2.95;;;1.00;;
68229;SDS011;55048;52.220;5.160;2023-06-14T04:13:42;2.92;;;1.00;;
68229;SDS011;55048;52.220;5.160;2023-06-14T04:16:08;4.88;;;1.10;;
68229;SDS011;55048;52.220;5.160;2023-06-14T04:18:35;8.35;;;1.00;;
68229;SDS011;55048;52.220;5.160;2023-06-14T04:21:00;6.05;;;1.00;;
68229;SDS011;55048;52.220;5.160;2023-06-14T04:23:29;5.43;;;1.38;;
68229;SDS011;55048;52.220;5.160;2023-06-14T04:25:55;6.93;;;1.15;;
68229;SDS011;55048;52.220;5.160;2023-06-14T04:28:27;3.95;;;1.08;;
68229;SDS011;55048;52.220;5.160;2023-06-14T04:30:55;3.75;;;1.40;;
68229;SDS011;55048;52.220;5.160;2023-06-14T04:33:22;4.43;;;1.00;;
68229;SDS011;55048;52.220;5.160;2023-06-14T04:35:51;6.32;;;1.10;;
68229;SDS011;55048;52.220;5.160;2023-06-14T04:38:19;9.60;;;1.10;;
68229;SDS011;55048;52.220;5.160;2023-06-14T04:40:49;9.57;;;1.42;;
68229;SDS011;55048;52.220;5.160;2023-06-14T04:43:18;3.75;;;1.02;;
68229;SDS011;55048;52.220;5.160;2023-06-14T04:45:52;6.40;;;1.10;;
68229;SDS011;55048;52.220;5.160;2023-06-14T04:48:20;5.60;;;1.20;;
68229;SDS011;55048;52.220;5.160;2023-06-14T04:50:47;13.90;;;1.20;;
68229;SDS011;55048;52.220;5.160;2023-06-14T04:53:13;6.50;;;1.25;;
68229;SDS011;55048;52.220;5.160;2023-06-14T04:55:40;5.25;;;1.10;;
68229;SDS011;55048;52.220;5.160;2023-06-14T04:58:10;6.00;;;1.10;;
68229;SDS011;55048;52.220;5.160;2023-06-14T05:00:38;5.30;;;1.05;;
68229;SDS011;55048;52.220;5.160;2023-06-14T05:03:03;3.60;;;1.08;;
68229;SDS011;55048;52.220;5.160;2023-06-14T05:05:31;9.82;;;1.10;;
68229;SDS011;55048;52.220;5.160;2023-06-14T05:07:58;3.67;;;1.00;;
68229;SDS011;55048;52.220;5.160;2023-06-14T05:10:24;6.32;;;1.30;;
68229;SDS011;55048;52.220;5.160;2023-06-14T05:12:49;4.90;;;1.00;;
68229;SDS011;55048;52.220;5.160;2023-06-14T05:15:17;9.65;;;1.50;;
68229;SDS011;55048;52.220;5.160;2023-06-14T05:17:43;3.97;;;1.10;;
68229;SDS011;55048;52.220;5.160;2023-06-14T05:20:08;2.92;;;1.30;;
68229;SDS011;55048;52.220;5.160;2023-06-14T05:22:35;8.25;;;1.10;;
68229;SDS011;55048;52.220;5.160;2023-06-14T05:25:01;7.00;;;1.10;;
68229;SDS011;55048;52.220;5.160;2023-06-14T05:27:26;8.25;;;1.10;;
68229;SDS011;55048;52.220;5.160;2023-06-14T05:29:52;7.32;;;1.23;;
68229;SDS011;55048;52.220;5.160;2023-06-14T05:32:20;4.20;;;0.93;;
68229;SDS011;55048;52.220;5.160;2023-06-14T05:34:46;10.35;;;1.20;;
68229;SDS011;55048;52.220;5.160;2023-06-14T05:37:11;4.82;;;1.10;;
68229;SDS011;55048;52.220;5.160;2023-06-14T05:39:38;10.60;;;1.10;;
68229;SDS011;55048;52.220;5.160;2023-06-14T05:42:03;2.08;;;1.08;;
68229;SDS011;55048;52.220;5.160;2023-06-14T05:44:29;7.25;;;1.00;;
68229;SDS011;55048;52.220;5.160;2023-06-14T05:46:54;5.93;;;1.13;;
68229;SDS011;55048;52.220;5.160;2023-06-14T05:49:20;7.18;;;1.20;;
68229;SDS011;55048;52.220;5.160;2023-06-14T05:51:45;7.63;;;1.50;;
68229;SDS011;55048;52.220;5.160;2023-06-14T05:54:11;21.70;;;1.42;;
68229;SDS011;55048;52.220;5.160;2023-06-14T05:56:36;10.25;;;1.20;;
68229;SDS011;55048;52.220;5.160;2023-06-14T05:59:01;6.63;;;1.10;;
68229;SDS011;55048;52.220;5.160;2023-06-14T06:01:27;4.88;;;1.00;;
68229;SDS011;55048;52.220;5.160;2023-06-14T06:03:52;4.95;;;1.50;;
68229;SDS011;55048;52.220;5.160;2023-06-14T06:06:18;8.90;;;1.30;;
68229;SDS011;55048;52.220;5.160;2023-06-14T06:08:44;11.63;;;1.42;;
68229;SDS011;55048;52.220;5.160;2023-06-14T06:11:09;12.18;;;1.52;;
68229;SDS011;55048;52.220;5.160;2023-06-14T06:13:35;10.85;;;1.42;;
68229;SDS011;55048;52.220;5.160;2023-06-14T06:16:01;5.43;;;1.30;;
68229;SDS011;55048;52.220;5.160;2023-06-14T06:18:27;10.05;;;1.20;;
68229;SDS011;55048;52.220;5.160;2023-06-14T06:20:53;9.68;;;1.40;;
68229;SDS011;55048;52.220;5.160;2023-06-14T06:23:18;5.80;;;1.30;;
68229;SDS011;55048;52.220;5.160;2023-06-14T06:25:43;8.00;;;1.25;;
68229;SDS011;55048;52.220;5.160;2023-06-14T06:28:09;10.48;;;1.20;;
68229;SDS011;55048;52.220;5.160;2023-06-14T06:30:34;5.93;;;1.33;;
68229;SDS011;55048;52.220;5.160;2023-06-14T06:33:01;3.03;;;1.30;;
68229;SDS011;55048;52.220;5.160;2023-06-14T06:35:28;8.52;;;1.30;;
68229;SDS011;55048;52.220;5.160;2023-06-14T06:37:55;2.05;;;1.10;;
68229;SDS011;55048;52.220;5.160;2023-06-14T06:40:20;4.55;;;1.23;;
68229;SDS011;55048;52.220;5.160;2023-06-14T06:42:46;6.40;;;1.20;;
68229;SDS011;55048;52.220;5.160;2023-06-14T06:45:13;9.45;;;1.45;;
68229;SDS011;55048;52.220;5.160;2023-06-14T06:47:38;4.25;;;1.30;;
68229;SDS011;55048;52.220;5.160;2023-06-14T06:50:03;4.35;;;1.30;;
68229;SDS011;55048;52.220;5.160;2023-06-14T06:52:29;6.20;;;1.50;;
68229;SDS011;55048;52.220;5.160;2023-06-14T06:54:55;7.38;;;1.50;;
68229;SDS011;55048;52.220;5.160;2023-06-14T06:57:21;8.70;;;1.40;;
68229;SDS011;55048;52.220;5.160;2023-06-14T06:59:49;3.28;;;1.30;;
68229;SDS011;55048;52.220;5.160;2023-06-14T07:02:15;6.65;;;1.40;;
68229;SDS011;55048;52.220;5.160;2023-06-14T07:04:40;6.25;;;1.27;;
68229;SDS011;55048;52.220;5.160;2023-06-14T07:07:06;7.20;;;1.38;;
68229;SDS011;55048;52.220;5.160;2023-06-14T07:09:32;9.63;;;1.20;;
68229;SDS011;55048;52.220;5.160;2023-06-14T07:11:57;8.88;;;1.20;;
68229;SDS011;55048;52.220;5.160;2023-06-14T07:14:23;3.50;;;1.10;;
68229;SDS011;55048;52.220;5.160;2023-06-14T07:16:49;6.88;;;1.30;;
68229;SDS011;55048;52.220;5.160;2023-06-14T07:19:14;4.78;;;1.27;;
68229;SDS011;55048;52.220;5.160;2023-06-14T07:21:40;6.10;;;1.20;;
68229;SDS011;55048;52.220;5.160;2023-06-14T07:24:08;7.32;;;1.10;;
68229;SDS011;55048;52.220;5.160;2023-06-14T07:26:34;4.95;;;1.30;;
68229;SDS011;55048;52.220;5.160;2023-06-14T07:29:00;7.07;;;1.23;;
68229;SDS011;55048;52.220;5.160;2023-06-14T07:31:26;4.47;;;1.30;;
68229;SDS011;55048;52.220;5.160;2023-06-14T07:33:52;9.70;;;1.20;;
68229;SDS011;55048;52.220;5.160;2023-06-14T07:36:18;4.85;;;1.17;;
68229;SDS011;55048;52.220;5.160;2023-06-14T07:38:43;4.80;;;1.20;;
68229;SDS011;55048;52.220;5.160;2023-06-14T07:41:09;8.90;;;1.35;;
68229;SDS011;55048;52.220;5.160;2023-06-14T07:43:34;8.32;;;1.33;;
68229;SDS011;55048;52.220;5.160;2023-06-14T07:46:00;6.28;;;1.15;;
68229;SDS011;55048;52.220;5.160;2023-06-14T07:48:26;3.22;;;1.00;;
68229;SDS011;55048;52.220;5.160;2023-06-14T07:50:51;3.92;;;1.10;;
68229;SDS011;55048;52.220;5.160;2023-06-14T07:53:17;10.23;;;1.30;;
68229;SDS011;55048;52.220;5.160;2023-06-14T07:55:42;7.18;;;1.20;;
68229;SDS011;55048;52.220;5.160;2023-06-14T07:58:08;7.30;;;0.98;;
68229;SDS011;55048;52.220;5.160;2023-06-14T08:00:34;7.53;;;1.13;;
68229;SDS011;55048;52.220;5.160;2023-06-14T08:03:00;5.65;;;0.85;;
68229;SDS011;55048;52.220;5.160;2023-06-14T08:05:25;2.10;;;0.95;;
68229;SDS011;55048;52.220;5.160;2023-06-14T08:07:51;7.28;;;1.38;;
68229;SDS011;55048;52.220;5.160;2023-06-14T08:10:17;3.35;;;1.27;;
68229;SDS011;55048;52.220;5.160;2023-06-14T08:12:43;4.70;;;0.90;;
68229;SDS011;55048;52.220;5.160;2023-06-14T08:15:08;3.17;;;0.80;;
68229;SDS011;55048;52.220;5.160;2023-06-14T08:17:34;4.13;;;1.00;;
68229;SDS011;55048;52.220;5.160;2023-06-14T08:20:00;6.88;;;1.00;;
68229;SDS011;55048;52.220;5.160;2023-06-14T08:22:25;3.63;;;0.80;;
68229;SDS011;55048;52.220;5.160;2023-06-14T08:24:53;2.25;;;0.80;;
68229;SDS011;55048;52.220;5.160;2023-06-14T08:27:19;3.25;;;1.08;;
68229;SDS011;55048;52.220;5.160;2023-06-14T08:29:45;5.45;;;0.95;;
68229;SDS011;55048;52.220;5.160;2023-06-14T08:32:10;3.17;;;0.90;;
68229;SDS011;55048;52.220;5.160;2023-06-14T08:34:36;2.10;;;0.70;;
68229;SDS011;55048;52.220;5.160;2023-06-14T08:37:01;2.40;;;0.77;;
68229;SDS011;55048;52.220;5.160;2023-06-14T08:39:27;4.68;;;0.80;;
68229;SDS011;55048;52.220;5.160;2023-06-14T08:41:52;5.32;;;0.80;;
68229;SDS011;55048;52.220;5.160;2023-06-14T08:44:19;2.83;;;0.70;;
68229;SDS011;55048;52.220;5.160;2023-06-14T08:46:45;6.43;;;0.70;;
68229;SDS011;55048;52.220;5.160;2023-06-14T08:49:13;4.45;;;0.70;;
68229;SDS011;55048;52.220;5.160;2023-06-14T08:51:41;3.90;;;0.70;;
68229;SDS011;55048;52.220;5.160;2023-06-14T08:54:08;3.70;;;0.88;;
68229;SDS011;55048;52.220;5.160;2023-06-14T08:56:36;5.75;;;0.80;;
68229;SDS011;55048;52.220;5.160;2023-06-14T08:59:03;2.20;;;0.70;;
68229;SDS011;55048;52.220;5.160;2023-06-14T09:01:36;3.35;;;0.80;;
68229;SDS011;55048;52.220;5.160;2023-06-14T09:04:02;5.97;;;0.82;;
68229;SDS011;55048;52.220;5.160;2023-06-14T09:06:30;2.13;;;0.60;;
68229;SDS011;55048;52.220;5.160;2023-06-14T09:08:56;3.67;;;0.70;;
68229;SDS011;55048;52.220;5.160;2023-06-14T09:11:24;6.88;;;0.90;;
68229;SDS011;55048;52.220;5.160;2023-06-14T09:13:51;4.95;;;0.60;;
68229;SDS011;55048;52.220;5.160;2023-06-14T09:16:17;2.88;;;0.80;;
68229;SDS011;55048;52.220;5.160;2023-06-14T09:18:43;3.47;;;0.77;;
68229;SDS011;55048;52.220;5.160;2023-06-14T09:21:12;4.70;;;0.70;;
68229;SDS011;55048;52.220;5.160;2023-06-14T09:23:40;3.88;;;0.75;;
68229;SDS011;55048;52.220;5.160;2023-06-14T09:26:07;4.47;;;0.70;;
68229;SDS011;55048;52.220;5.160;2023-06-14T09:28:47;4.05;;;0.70;;
68229;SDS011;55048;52.220;5.160;2023-06-14T09:31:14;4.70;;;0.80;;
68229;SDS011;55048;52.220;5.160;2023-06-14T09:33:48;3.92;;;0.70;;
68229;SDS011;55048;52.220;5.160;2023-06-14T09:36:22;2.80;;;0.70;;
68229;SDS011;55048;52.220;5.160;2023-06-14T09:38:56;2.45;;;0.70;;
68229;SDS011;55048;52.220;5.160;2023-06-14T09:41:35;1.77;;;0.60;;
68229;SDS011;55048;52.220;5.160;2023-06-14T09:44:04;5.63;;;1.05;;
68229;SDS011;55048;52.220;5.160;2023-06-14T09:46:31;1.25;;;0.60;;
68229;SDS011;55048;52.220;5.160;2023-06-14T09:49:00;0.90;;;0.60;;
68229;SDS011;55048;52.220;5.160;2023-06-14T09:53:52;4.00;;;0.63;;
68229;SDS011;55048;52.220;5.160;2023-06-14T09:56:27;0.98;;;0.55;;
68229;SDS011;55048;52.220;5.160;2023-06-14T09:58:57;1.45;;;0.70;;
68229;SDS011;55048;52.220;5.160;2023-06-14T10:01:27;3.60;;;0.60;;
68229;SDS011;55048;52.220;5.160;2023-06-14T10:04:00;3.03;;;0.60;;
68229;SDS011;55048;52.220;5.160;2023-06-14T10:06:28;0.95;;;0.60;;
68229;SDS011;55048;52.220;5.160;2023-06-14T10:08:56;2.65;;;0.60;;
68229;SDS011;55048;52.220;5.160;2023-06-14T10:11:25;1.05;;;0.60;;
68229;SDS011;55048;52.220;5.160;2023-06-14T10:13:54;2.58;;;0.65;;
68229;SDS011;55048;52.220;5.160;2023-06-14T10:16:23;5.63;;;0.80;;
68229;SDS011;55048;52.220;5.160;2023-06-14T10:19:00;2.58;;;0.70;;
68229;SDS011;55048;52.220;5.160;2023-06-14T10:24:28;4.63;;;0.68;;
68229;SDS011;55048;52.220;5.160;2023-06-14T10:26:58;6.43;;;0.70;;
68229;SDS011;55048;52.220;5.160;2023-06-14T10:29:24;5.57;;;0.70;;
68229;SDS011;55048;52.220;5.160;2023-06-14T10:31:55;1.90;;;0.70;;
68229;SDS011;55048;52.220;5.160;2023-06-14T10:34:22;1.45;;;0.68;;
68229;SDS011;55048;52.220;5.160;2023-06-14T10:37:11;1.67;;;0.68;;
68229;SDS011;55048;52.220;5.160;2023-06-14T10:39:42;1.92;;;0.50;;
68229;SDS011;55048;52.220;5.160;2023-06-14T10:42:11;4.07;;;0.55;;
68229;SDS011;55048;52.220;5.160;2023-06-14T10:47:06;1.45;;;0.52;;
68229;SDS011;55048;52.220;5.160;2023-06-14T10:49:43;1.27;;;0.50;;
68229;SDS011;55048;52.220;5.160;2023-06-14T10:52:11;3.45;;;0.60;;
68229;SDS011;55048;52.220;5.160;2023-06-14T10:57:47;1.90;;;0.70;;
68229;SDS011;55048;52.220;5.160;2023-06-14T11:00:16;3.42;;;0.68;;
68229;SDS011;55048;52.220;5.160;2023-06-14T11:05:48;2.97;;;0.60;;
68229;SDS011;55048;52.220;5.160;2023-06-14T11:11:15;3.20;;;0.50;;
68229;SDS011;55048;52.220;5.160;2023-06-14T11:13:43;2.05;;;0.60;;
68229;SDS011;55048;52.220;5.160;2023-06-14T11:16:14;0.80;;;0.50;;
68229;SDS011;55048;52.220;5.160;2023-06-14T11:18:41;0.75;;;0.40;;
68229;SDS011;55048;52.220;5.160;2023-06-14T11:21:06;2.20;;;0.60;;
68229;SDS011;55048;52.220;5.160;2023-06-14T11:23:33;7.07;;;0.90;;
68229;SDS011;55048;52.220;5.160;2023-06-14T11:25:59;0.90;;;0.50;;
68229;SDS011;55048;52.220;5.160;2023-06-14T11:28:25;3.05;;;0.50;;
68229;SDS011;55048;52.220;5.160;2023-06-14T11:31:03;1.92;;;0.70;;
68229;SDS011;55048;52.220;5.160;2023-06-14T11:33:29;3.45;;;0.60;;
68229;SDS011;55048;52.220;5.160;2023-06-14T11:35:55;2.53;;;0.60;;
68229;SDS011;55048;52.220;5.160;2023-06-14T11:38:20;3.60;;;0.60;;
68229;SDS011;55048;52.220;5.160;2023-06-14T11:40:46;4.60;;;0.63;;
68229;SDS011;55048;52.220;5.160;2023-06-14T11:43:11;4.03;;;0.60;;
68229;SDS011;55048;52.220;5.160;2023-06-14T11:45:38;2.05;;;0.50;;
68229;SDS011;55048;52.220;5.160;2023-06-14T11:48:04;4.63;;;0.50;;
68229;SDS011;55048;52.220;5.160;2023-06-14T11:50:31;4.20;;;0.70;;
68229;SDS011;55048;52.220;5.160;2023-06-14T11:52:59;1.83;;;0.60;;
68229;SDS011;55048;52.220;5.160;2023-06-14T11:55:31;1.25;;;0.50;;
68229;SDS011;55048;52.220;5.160;2023-06-14T11:57:57;1.48;;;0.60;;
68229;SDS011;55048;52.220;5.160;2023-06-14T12:00:26;5.18;;;0.70;;
68229;SDS011;55048;52.220;5.160;2023-06-14T12:02:56;1.45;;;0.50;;
68229;SDS011;55048;52.220;5.160;2023-06-14T12:07:47;0.82;;;0.70;;
68229;SDS011;55048;52.220;5.160;2023-06-14T12:10:13;1.65;;;0.50;;
68229;SDS011;55048;52.220;5.160;2023-06-14T12:12:39;2.63;;;0.60;;
68229;SDS011;55048;52.220;5.160;2023-06-14T12:15:06;5.53;;;0.70;;
68229;SDS011;55048;52.220;5.160;2023-06-14T12:17:33;4.68;;;0.73;;
68229;SDS011;55048;52.220;5.160;2023-06-14T12:20:04;3.45;;;0.60;;
68229;SDS011;55048;52.220;5.160;2023-06-14T12:22:54;5.05;;;0.60;;
68229;SDS011;55048;52.220;5.160;2023-06-14T12:27:55;3.28;;;0.60;;
68229;SDS011;55048;52.220;5.160;2023-06-14T12:30:21;3.20;;;0.60;;
68229;SDS011;55048;52.220;5.160;2023-06-14T12:32:47;1.48;;;0.60;;
68229;SDS011;55048;52.220;5.160;2023-06-14T12:35:13;3.85;;;0.68;;
68229;SDS011;55048;52.220;5.160;2023-06-14T12:37:39;1.50;;;0.57;;
68229;SDS011;55048;52.220;5.160;2023-06-14T12:40:05;2.95;;;0.55;;
68229;SDS011;55048;52.220;5.160;2023-06-14T12:42:31;6.43;;;0.60;;
68229;SDS011;55048;52.220;5.160;2023-06-14T12:44:58;1.30;;;0.50;;
68229;SDS011;55048;52.220;5.160;2023-06-14T12:47:24;4.90;;;0.60;;
68229;SDS011;55048;52.220;5.160;2023-06-14T12:49:50;1.73;;;0.47;;
68229;SDS011;55048;52.220;5.160;2023-06-14T12:52:15;1.95;;;0.60;;
68229;SDS011;55048;52.220;5.160;2023-06-14T12:54:40;3.72;;;0.52;;
68229;SDS011;55048;52.220;5.160;2023-06-14T12:57:06;0.68;;;0.47;;
68229;SDS011;55048;52.220;5.160;2023-06-14T12:59:32;2.60;;;0.50;;
68229;SDS011;55048;52.220;5.160;2023-06-14T13:01:59;3.10;;;0.50;;
68229;SDS011;55048;52.220;5.160;2023-06-14T13:04:35;4.50;;;0.63;;
68229;SDS011;55048;52.220;5.160;2023-06-14T13:07:01;3.97;;;0.60;;
68229;SDS011;55048;52.220;5.160;2023-06-14T13:09:26;0.88;;;0.50;;
68229;SDS011;55048;52.220;5.160;2023-06-14T13:11:52;6.18;;;0.60;;
68229;SDS011;55048;52.220;5.160;2023-06-14T13:14:17;5.40;;;0.52;;
68229;SDS011;55048;52.220;5.160;2023-06-14T13:16:43;5.22;;;0.70;;
68229;SDS011;55048;52.220;5.160;2023-06-14T13:19:09;2.03;;;0.60;;
68229;SDS011;55048;52.220;5.160;2023-06-14T13:21:34;3.50;;;0.50;;
68229;SDS011;55048;52.220;5.160;2023-06-14T13:23:59;1.00;;;0.57;;
68229;SDS011;55048;52.220;5.160;2023-06-14T13:26:25;4.60;;;0.60;;
68229;SDS011;55048;52.220;5.160;2023-06-14T13:28:51;3.38;;;1.10;;
68229;SDS011;55048;52.220;5.160;2023-06-14T13:31:17;1.55;;;0.63;;
68229;SDS011;55048;52.220;5.160;2023-06-14T13:33:42;2.78;;;0.50;;
68229;SDS011;55048;52.220;5.160;2023-06-14T13:36:08;6.20;;;0.70;;
68229;SDS011;55048;52.220;5.160;2023-06-14T13:38:33;4.18;;;0.60;;
68229;SDS011;55048;52.220;5.160;2023-06-14T13:40:59;2.53;;;0.70;;
68229;SDS011;55048;52.220;5.160;2023-06-14T13:43:25;2.15;;;0.52;;
68229;SDS011;55048;52.220;5.160;2023-06-14T13:45:50;1.95;;;0.57;;
68229;SDS011;55048;52.220;5.160;2023-06-14T13:48:16;4.50;;;0.70;;
68229;SDS011;55048;52.220;5.160;2023-06-14T13:50:41;2.63;;;0.60;;
68229;SDS011;55048;52.220;5.160;2023-06-14T13:53:07;6.15;;;0.70;;
68229;SDS011;55048;52.220;5.160;2023-06-14T13:55:32;2.08;;;0.60;;
68229;SDS011;55048;52.220;5.160;2023-06-14T13:57:58;5.15;;;0.70;;
68229;SDS011;55048;52.220;5.160;2023-06-14T14:00:23;2.42;;;0.50;;
68229;SDS011;55048;52.220;5.160;2023-06-14T14:02:48;2.85;;;0.57;;
68229;SDS011;55048;52.220;5.160;2023-06-14T14:05:15;1.63;;;0.60;;
68229;SDS011;55048;52.220;5.160;2023-06-14T14:07:41;1.27;;;0.60;;
68229;SDS011;55048;52.220;5.160;2023-06-14T14:10:07;1.30;;;0.60;;
68229;SDS011;55048;52.220;5.160;2023-06-14T14:12:33;4.80;;;0.60;;
68229;SDS011;55048;52.220;5.160;2023-06-14T14:14:59;2.95;;;0.50;;
68229;SDS011;55048;52.220;5.160;2023-06-14T14:17:24;4.18;;;0.60;;
68229;SDS011;55048;52.220;5.160;2023-06-14T14:19:50;3.65;;;0.63;;
68229;SDS011;55048;52.220;5.160;2023-06-14T14:22:15;4.22;;;0.70;;
68229;SDS011;55048;52.220;5.160;2023-06-14T14:24:41;2.35;;;0.50;;
68229;SDS011;55048;52.220;5.160;2023-06-14T14:27:06;3.20;;;0.60;;
68229;SDS011;55048;52.220;5.160;2023-06-14T14:29:33;2.90;;;0.60;;
68229;SDS011;55048;52.220;5.160;2023-06-14T14:31:58;4.85;;;0.60;;
68229;SDS011;55048;52.220;5.160;2023-06-14T14:34:24;6.18;;;0.90;;
68229;SDS011;55048;52.220;5.160;2023-06-14T14:36:49;4.63;;;0.70;;
68229;SDS011;55048;52.220;5.160;2023-06-14T14:39:15;3.67;;;0.70;;
68229;SDS011;55048;52.220;5.160;2023-06-14T14:41:40;4.85;;;1.00;;
68229;SDS011;55048;52.220;5.160;2023-06-14T14:44:06;2.65;;;0.57;;
68229;SDS011;55048;52.220;5.160;2023-06-14T14:46:31;1.23;;;0.50;;
68229;SDS011;55048;52.220;5.160;2023-06-14T14:48:58;2.75;;;0.73;;
68229;SDS011;55048;52.220;5.160;2023-06-14T14:51:24;6.38;;;0.80;;
68229;SDS011;55048;52.220;5.160;2023-06-14T14:53:49;3.15;;;0.50;;
68229;SDS011;55048;52.220;5.160;2023-06-14T14:56:15;1.55;;;0.60;;
68229;SDS011;55048;52.220;5.160;2023-06-14T14:58:40;1.50;;;0.70;;
68229;SDS011;55048;52.220;5.160;2023-06-14T15:01:05;8.85;;;0.80;;
68229;SDS011;55048;52.220;5.160;2023-06-14T15:03:32;2.47;;;0.50;;
68229;SDS011;55048;52.220;5.160;2023-06-14T15:05:57;5.35;;;0.60;;
68229;SDS011;55048;52.220;5.160;2023-06-14T15:08:22;2.13;;;0.70;;